sensor_id;sensor_type;location;lat;lon;timestamp;P1;durP1;ratioP1;P2;durP2;ratioP2
36745;SDS011;22715;52.182;21.206;2023-04-16T00:24:23;6.07;;;4.25;;
36745;SDS011;22715;52.182;21.206;2023-04-16T01:09:36;3.03;;;2.67;;
36745;SDS011;22715;52.182;21.206;2023-04-16T01:47:05;4.20;;;3.00;;
36745;SDS011;22715;52.182;21.206;2023-04-16T02:01:42;3.83;;;2.88;;
36745;SDS011;22715;52.182;21.206;2023-04-16T02:04:49;2.72;;;2.40;;
36745;SDS011;22715;52.182;21.206;2023-04-16T02:53:48;4.45;;;2.90;;
36745;SDS011;22715;52.182;21.206;2023-04-16T03:25:02;5.32;;;4.38;;
36745;SDS011;22715;52.182;21.206;2023-04-16T03:49:01;7.80;;;4.50;;
36745;SDS011;22715;52.182;21.206;2023-04-16T04:32:57;9.10;;;6.30;;
36745;SDS011;22715;52.182;21.206;2023-04-16T05:00:30;9.05;;;6.28;;
36745;SDS011;22715;52.182;21.206;2023-04-16T05:23:12;6.72;;;5.55;;
36745;SDS011;22715;52.182;21.206;2023-04-16T05:26:03;7.75;;;6.60;;
36745;SDS011;22715;52.182;21.206;2023-04-16T05:41:26;7.97;;;6.18;;
36745;SDS011;22715;52.182;21.206;2023-04-16T05:43:51;9.82;;;6.05;;
36745;SDS011;22715;52.182;21.206;2023-04-16T05:46:17;7.70;;;5.85;;
36745;SDS011;22715;52.182;21.206;2023-04-16T05:48:42;10.15;;;6.85;;
36745;SDS011;22715;52.182;21.206;2023-04-16T05:51:07;7.10;;;5.70;;
36745;SDS011;22715;52.182;21.206;2023-04-16T05:53:33;7.82;;;6.15;;
36745;SDS011;22715;52.182;21.206;2023-04-16T05:55:58;7.32;;;5.78;;
36745;SDS011;22715;52.182;21.206;2023-04-16T05:58:24;7.70;;;5.95;;
36745;SDS011;22715;52.182;21.206;2023-04-16T06:03:21;9.48;;;6.68;;
36745;SDS011;22715;52.182;21.206;2023-04-16T06:05:46;10.13;;;5.93;;
36745;SDS011;22715;52.182;21.206;2023-04-16T06:08:12;9.10;;;6.75;;
36745;SDS011;22715;52.182;21.206;2023-04-16T06:10:37;8.68;;;6.40;;
36745;SDS011;22715;52.182;21.206;2023-04-16T06:15:32;10.23;;;5.40;;
36745;SDS011;22715;52.182;21.206;2023-04-16T06:17:58;7.30;;;5.32;;
36745;SDS011;22715;52.182;21.206;2023-04-16T06:20:23;7.13;;;5.57;;
36745;SDS011;22715;52.182;21.206;2023-04-16T06:22:48;6.97;;;5.03;;
36745;SDS011;22715;52.182;21.206;2023-04-16T06:25:14;5.68;;;4.50;;
36745;SDS011;22715;52.182;21.206;2023-04-16T06:27:39;6.97;;;4.97;;
36745;SDS011;22715;52.182;21.206;2023-04-16T06:30:10;7.68;;;5.18;;
36745;SDS011;22715;52.182;21.206;2023-04-16T06:32:35;5.68;;;4.43;;
36745;SDS011;22715;52.182;21.206;2023-04-16T06:35:00;8.35;;;5.30;;
36745;SDS011;22715;52.182;21.206;2023-04-16T06:37:26;9.63;;;4.93;;
36745;SDS011;22715;52.182;21.206;2023-04-16T06:39:51;5.78;;;4.65;;
36745;SDS011;22715;52.182;21.206;2023-04-16T06:42:16;5.38;;;4.07;;
36745;SDS011;22715;52.182;21.206;2023-04-16T06:44:41;6.28;;;4.78;;
36745;SDS011;22715;52.182;21.206;2023-04-16T06:47:07;6.07;;;4.80;;
36745;SDS011;22715;52.182;21.206;2023-04-16T06:49:32;5.53;;;4.47;;
36745;SDS011;22715;52.182;21.206;2023-04-16T06:51:58;6.40;;;4.57;;
36745;SDS011;22715;52.182;21.206;2023-04-16T06:54:23;6.32;;;4.55;;
36745;SDS011;22715;52.182;21.206;2023-04-16T06:56:48;5.70;;;4.63;;
36745;SDS011;22715;52.182;21.206;2023-04-16T06:59:13;7.18;;;4.85;;
36745;SDS011;22715;52.182;21.206;2023-04-16T07:01:39;7.43;;;5.03;;
36745;SDS011;22715;52.182;21.206;2023-04-16T07:04:05;8.70;;;4.97;;
36745;SDS011;22715;52.182;21.206;2023-04-16T07:06:30;7.60;;;5.20;;
36745;SDS011;22715;52.182;21.206;2023-04-16T07:08:56;7.55;;;5.13;;
36745;SDS011;22715;52.182;21.206;2023-04-16T07:11:27;4.95;;;4.43;;
36745;SDS011;22715;52.182;21.206;2023-04-16T07:13:53;6.47;;;4.53;;
36745;SDS011;22715;52.182;21.206;2023-04-16T07:16:25;7.38;;;4.43;;
36745;SDS011;22715;52.182;21.206;2023-04-16T07:18:51;6.10;;;4.40;;
36745;SDS011;22715;52.182;21.206;2023-04-16T07:21:18;6.60;;;4.60;;
36745;SDS011;22715;52.182;21.206;2023-04-16T07:23:44;8.45;;;4.90;;
36745;SDS011;22715;52.182;21.206;2023-04-16T07:26:10;5.18;;;4.10;;
36745;SDS011;22715;52.182;21.206;2023-04-16T07:28:35;6.53;;;5.10;;
36745;SDS011;22715;52.182;21.206;2023-04-16T07:31:01;6.88;;;5.05;;
36745;SDS011;22715;52.182;21.206;2023-04-16T07:33:27;5.43;;;4.63;;
36745;SDS011;22715;52.182;21.206;2023-04-16T07:35:56;5.75;;;5.15;;
36745;SDS011;22715;52.182;21.206;2023-04-16T07:38:21;4.97;;;3.80;;
36745;SDS011;22715;52.182;21.206;2023-04-16T07:40:47;5.88;;;4.75;;
36745;SDS011;22715;52.182;21.206;2023-04-16T07:43:12;6.00;;;4.70;;
36745;SDS011;22715;52.182;21.206;2023-04-16T07:45:40;5.05;;;4.07;;
36745;SDS011;22715;52.182;21.206;2023-04-16T07:48:05;5.95;;;4.97;;
36745;SDS011;22715;52.182;21.206;2023-04-16T07:50:30;6.05;;;4.75;;
36745;SDS011;22715;52.182;21.206;2023-04-16T07:52:56;4.55;;;3.65;;
36745;SDS011;22715;52.182;21.206;2023-04-16T07:55:21;6.53;;;5.03;;
36745;SDS011;22715;52.182;21.206;2023-04-16T07:57:47;4.65;;;4.18;;
36745;SDS011;22715;52.182;21.206;2023-04-16T08:00:12;5.38;;;4.53;;
36745;SDS011;22715;52.182;21.206;2023-04-16T08:02:37;4.65;;;4.22;;
36745;SDS011;22715;52.182;21.206;2023-04-16T08:05:03;6.10;;;4.65;;
36745;SDS011;22715;52.182;21.206;2023-04-16T08:07:29;6.43;;;5.15;;
36745;SDS011;22715;52.182;21.206;2023-04-16T08:09:55;7.03;;;4.53;;
36745;SDS011;22715;52.182;21.206;2023-04-16T08:12:22;6.65;;;4.68;;
36745;SDS011;22715;52.182;21.206;2023-04-16T08:14:48;8.85;;;4.65;;
36745;SDS011;22715;52.182;21.206;2023-04-16T08:17:13;6.03;;;4.57;;
36745;SDS011;22715;52.182;21.206;2023-04-16T08:19:47;7.57;;;5.97;;
36745;SDS011;22715;52.182;21.206;2023-04-16T08:22:12;7.10;;;5.38;;
36745;SDS011;22715;52.182;21.206;2023-04-16T08:24:42;8.60;;;5.80;;
36745;SDS011;22715;52.182;21.206;2023-04-16T08:27:07;6.47;;;5.53;;
36745;SDS011;22715;52.182;21.206;2023-04-16T08:29:32;8.23;;;5.85;;
36745;SDS011;22715;52.182;21.206;2023-04-16T08:32:01;5.63;;;4.97;;
36745;SDS011;22715;52.182;21.206;2023-04-16T08:34:27;6.05;;;4.63;;
36745;SDS011;22715;52.182;21.206;2023-04-16T08:36:52;6.88;;;6.25;;
36745;SDS011;22715;52.182;21.206;2023-04-16T08:39:17;6.72;;;5.47;;
36745;SDS011;22715;52.182;21.206;2023-04-16T08:41:44;7.82;;;5.15;;
36745;SDS011;22715;52.182;21.206;2023-04-16T08:44:32;6.95;;;4.75;;
36745;SDS011;22715;52.182;21.206;2023-04-16T08:46:58;6.13;;;4.63;;
36745;SDS011;22715;52.182;21.206;2023-04-16T08:49:24;4.90;;;4.10;;
36745;SDS011;22715;52.182;21.206;2023-04-16T08:51:50;6.97;;;5.45;;
36745;SDS011;22715;52.182;21.206;2023-04-16T08:54:30;7.22;;;5.47;;
36745;SDS011;22715;52.182;21.206;2023-04-16T08:56:57;5.70;;;5.05;;
36745;SDS011;22715;52.182;21.206;2023-04-16T08:59:22;5.68;;;5.13;;
36745;SDS011;22715;52.182;21.206;2023-04-16T09:01:48;6.55;;;5.28;;
36745;SDS011;22715;52.182;21.206;2023-04-16T09:04:13;5.15;;;4.65;;
36745;SDS011;22715;52.182;21.206;2023-04-16T09:06:39;5.97;;;5.15;;
36745;SDS011;22715;52.182;21.206;2023-04-16T09:09:06;5.63;;;4.93;;
36745;SDS011;22715;52.182;21.206;2023-04-16T09:11:32;7.18;;;5.45;;
36745;SDS011;22715;52.182;21.206;2023-04-16T09:14:01;6.38;;;4.93;;
36745;SDS011;22715;52.182;21.206;2023-04-16T09:16:27;6.95;;;5.70;;
36745;SDS011;22715;52.182;21.206;2023-04-16T09:18:55;5.72;;;5.05;;
36745;SDS011;22715;52.182;21.206;2023-04-16T09:21:20;6.63;;;5.20;;
36745;SDS011;22715;52.182;21.206;2023-04-16T09:23:47;5.72;;;4.65;;
36745;SDS011;22715;52.182;21.206;2023-04-16T09:26:13;6.43;;;5.13;;
36745;SDS011;22715;52.182;21.206;2023-04-16T09:28:42;5.00;;;4.43;;
36745;SDS011;22715;52.182;21.206;2023-04-16T09:31:09;7.22;;;4.95;;
36745;SDS011;22715;52.182;21.206;2023-04-16T09:33:35;5.20;;;4.47;;
36745;SDS011;22715;52.182;21.206;2023-04-16T09:36:01;7.25;;;5.30;;
36745;SDS011;22715;52.182;21.206;2023-04-16T09:38:46;5.97;;;5.38;;
36745;SDS011;22715;52.182;21.206;2023-04-16T09:41:17;6.13;;;5.55;;
36745;SDS011;22715;52.182;21.206;2023-04-16T09:43:55;4.88;;;4.28;;
36745;SDS011;22715;52.182;21.206;2023-04-16T09:48:52;4.80;;;4.18;;
36745;SDS011;22715;52.182;21.206;2023-04-16T09:53:50;5.68;;;4.57;;
36745;SDS011;22715;52.182;21.206;2023-04-16T09:56:15;5.70;;;4.63;;
36745;SDS011;22715;52.182;21.206;2023-04-16T10:01:43;5.72;;;4.95;;
36745;SDS011;22715;52.182;21.206;2023-04-16T10:04:15;5.40;;;4.20;;
36745;SDS011;22715;52.182;21.206;2023-04-16T10:07:00;5.07;;;4.47;;
36745;SDS011;22715;52.182;21.206;2023-04-16T10:09:28;4.95;;;4.45;;
36745;SDS011;22715;52.182;21.206;2023-04-16T10:11:55;4.65;;;4.07;;
36745;SDS011;22715;52.182;21.206;2023-04-16T10:14:21;5.07;;;4.28;;
36745;SDS011;22715;52.182;21.206;2023-04-16T10:16:58;5.93;;;4.28;;
36745;SDS011;22715;52.182;21.206;2023-04-16T10:22:11;7.35;;;4.68;;
36745;SDS011;22715;52.182;21.206;2023-04-16T10:24:36;4.95;;;4.45;;
36745;SDS011;22715;52.182;21.206;2023-04-16T10:27:02;5.50;;;4.93;;
36745;SDS011;22715;52.182;21.206;2023-04-16T10:29:28;5.05;;;4.55;;
36745;SDS011;22715;52.182;21.206;2023-04-16T10:31:54;6.20;;;4.55;;
36745;SDS011;22715;52.182;21.206;2023-04-16T10:34:20;5.75;;;4.05;;
36745;SDS011;22715;52.182;21.206;2023-04-16T10:36:53;6.10;;;4.65;;
36745;SDS011;22715;52.182;21.206;2023-04-16T10:39:20;4.85;;;4.45;;
36745;SDS011;22715;52.182;21.206;2023-04-16T10:41:46;5.95;;;5.30;;
36745;SDS011;22715;52.182;21.206;2023-04-16T10:44:12;5.95;;;5.35;;
36745;SDS011;22715;52.182;21.206;2023-04-16T10:46:41;6.43;;;4.90;;
36745;SDS011;22715;52.182;21.206;2023-04-16T10:49:13;5.07;;;4.25;;
36745;SDS011;22715;52.182;21.206;2023-04-16T10:51:39;7.25;;;5.30;;
36745;SDS011;22715;52.182;21.206;2023-04-16T10:56:34;4.82;;;4.22;;
36745;SDS011;22715;52.182;21.206;2023-04-16T10:59:09;4.50;;;4.10;;
36745;SDS011;22715;52.182;21.206;2023-04-16T11:01:36;5.28;;;3.97;;
36745;SDS011;22715;52.182;21.206;2023-04-16T11:04:35;5.20;;;3.72;;
36745;SDS011;22715;52.182;21.206;2023-04-16T11:12:11;4.43;;;4.03;;
36745;SDS011;22715;52.182;21.206;2023-04-16T11:14:37;5.22;;;4.75;;
36745;SDS011;22715;52.182;21.206;2023-04-16T11:17:02;5.47;;;4.15;;
36745;SDS011;22715;52.182;21.206;2023-04-16T11:19:28;5.93;;;3.78;;
36745;SDS011;22715;52.182;21.206;2023-04-16T11:24:21;4.60;;;4.20;;
36745;SDS011;22715;52.182;21.206;2023-04-16T11:26:49;4.63;;;4.22;;
36745;SDS011;22715;52.182;21.206;2023-04-16T11:29:22;6.50;;;3.90;;
36745;SDS011;22715;52.182;21.206;2023-04-16T11:32:03;4.00;;;3.67;;
36745;SDS011;22715;52.182;21.206;2023-04-16T11:34:29;4.60;;;4.20;;
36745;SDS011;22715;52.182;21.206;2023-04-16T11:36:55;5.38;;;4.75;;
36745;SDS011;22715;52.182;21.206;2023-04-16T11:39:21;5.45;;;4.80;;
36745;SDS011;22715;52.182;21.206;2023-04-16T11:41:47;5.68;;;4.88;;
36745;SDS011;22715;52.182;21.206;2023-04-16T11:46:41;4.60;;;4.20;;
36745;SDS011;22715;52.182;21.206;2023-04-16T11:49:07;4.30;;;3.90;;
36745;SDS011;22715;52.182;21.206;2023-04-16T11:51:32;4.80;;;3.78;;
36745;SDS011;22715;52.182;21.206;2023-04-16T11:53:57;5.10;;;3.60;;
36745;SDS011;22715;52.182;21.206;2023-04-16T11:56:35;5.88;;;5.13;;
36745;SDS011;22715;52.182;21.206;2023-04-16T11:59:20;5.07;;;4.57;;
36745;SDS011;22715;52.182;21.206;2023-04-16T12:01:52;5.15;;;3.67;;
36745;SDS011;22715;52.182;21.206;2023-04-16T12:04:20;5.72;;;3.75;;
36745;SDS011;22715;52.182;21.206;2023-04-16T12:09:30;3.65;;;3.28;;
36745;SDS011;22715;52.182;21.206;2023-04-16T12:11:55;4.10;;;3.70;;
36745;SDS011;22715;52.182;21.206;2023-04-16T12:14:21;4.20;;;3.80;;
36745;SDS011;22715;52.182;21.206;2023-04-16T12:16:46;3.40;;;3.10;;
36745;SDS011;22715;52.182;21.206;2023-04-16T12:19:12;4.38;;;3.97;;
36745;SDS011;22715;52.182;21.206;2023-04-16T12:21:44;3.95;;;3.65;;
36745;SDS011;22715;52.182;21.206;2023-04-16T12:24:11;3.35;;;3.00;;
36745;SDS011;22715;52.182;21.206;2023-04-16T12:26:44;3.55;;;3.22;;
36745;SDS011;22715;52.182;21.206;2023-04-16T12:29:23;4.28;;;3.60;;
36745;SDS011;22715;52.182;21.206;2023-04-16T12:31:50;4.18;;;3.80;;
36745;SDS011;22715;52.182;21.206;2023-04-16T12:34:16;3.70;;;3.40;;
36745;SDS011;22715;52.182;21.206;2023-04-16T12:36:42;3.33;;;3.03;;
36745;SDS011;22715;52.182;21.206;2023-04-16T12:39:08;3.60;;;3.30;;
36745;SDS011;22715;52.182;21.206;2023-04-16T12:41:38;3.78;;;3.15;;
36745;SDS011;22715;52.182;21.206;2023-04-16T12:44:05;4.28;;;3.20;;
36745;SDS011;22715;52.182;21.206;2023-04-16T12:46:33;4.28;;;3.88;;
36745;SDS011;22715;52.182;21.206;2023-04-16T12:48:58;5.43;;;3.75;;
36745;SDS011;22715;52.182;21.206;2023-04-16T12:51:24;2.65;;;2.45;;
36745;SDS011;22715;52.182;21.206;2023-04-16T12:53:49;2.83;;;2.60;;
36745;SDS011;22715;52.182;21.206;2023-04-16T12:56:16;4.22;;;3.80;;
36745;SDS011;22715;52.182;21.206;2023-04-16T12:58:41;2.72;;;2.53;;
36745;SDS011;22715;52.182;21.206;2023-04-16T13:01:06;3.40;;;2.42;;
36745;SDS011;22715;52.182;21.206;2023-04-16T13:03:31;3.28;;;2.85;;
36745;SDS011;22715;52.182;21.206;2023-04-16T13:06:00;3.97;;;2.38;;
36745;SDS011;22715;52.182;21.206;2023-04-16T13:08:29;3.28;;;2.97;;
36745;SDS011;22715;52.182;21.206;2023-04-16T13:10:57;2.53;;;2.33;;
36745;SDS011;22715;52.182;21.206;2023-04-16T13:13:30;6.03;;;2.58;;
36745;SDS011;22715;52.182;21.206;2023-04-16T13:15:57;3.20;;;2.95;;
36745;SDS011;22715;52.182;21.206;2023-04-16T13:18:28;4.18;;;3.78;;
36745;SDS011;22715;52.182;21.206;2023-04-16T13:20:53;3.17;;;2.83;;
36745;SDS011;22715;52.182;21.206;2023-04-16T13:23:19;3.33;;;2.78;;
36745;SDS011;22715;52.182;21.206;2023-04-16T13:25:44;3.03;;;2.72;;
36745;SDS011;22715;52.182;21.206;2023-04-16T13:28:09;3.83;;;2.55;;
36745;SDS011;22715;52.182;21.206;2023-04-16T13:30:35;4.40;;;3.25;;
36745;SDS011;22715;52.182;21.206;2023-04-16T13:36:00;6.30;;;3.03;;
36745;SDS011;22715;52.182;21.206;2023-04-16T13:38:25;3.53;;;2.67;;
36745;SDS011;22715;52.182;21.206;2023-04-16T13:40:51;2.70;;;2.50;;
36745;SDS011;22715;52.182;21.206;2023-04-16T13:43:17;2.40;;;2.10;;
36745;SDS011;22715;52.182;21.206;2023-04-16T13:45:43;4.10;;;3.28;;
36745;SDS011;22715;52.182;21.206;2023-04-16T13:48:08;3.47;;;2.85;;
36745;SDS011;22715;52.182;21.206;2023-04-16T13:50:36;3.35;;;3.08;;
36745;SDS011;22715;52.182;21.206;2023-04-16T13:53:02;3.22;;;2.92;;
36745;SDS011;22715;52.182;21.206;2023-04-16T13:55:29;2.50;;;2.30;;
36745;SDS011;22715;52.182;21.206;2023-04-16T13:57:55;2.95;;;2.65;;
36745;SDS011;22715;52.182;21.206;2023-04-16T14:00:25;2.72;;;2.30;;
36745;SDS011;22715;52.182;21.206;2023-04-16T14:02:51;3.00;;;2.80;;
36745;SDS011;22715;52.182;21.206;2023-04-16T14:05:16;3.58;;;2.65;;
36745;SDS011;22715;52.182;21.206;2023-04-16T14:07:43;2.97;;;2.60;;
36745;SDS011;22715;52.182;21.206;2023-04-16T14:10:08;3.35;;;3.08;;
36745;SDS011;22715;52.182;21.206;2023-04-16T14:12:34;2.42;;;2.22;;
36745;SDS011;22715;52.182;21.206;2023-04-16T14:15:01;3.50;;;3.13;;
36745;SDS011;22715;52.182;21.206;2023-04-16T14:17:28;3.05;;;2.75;;
36745;SDS011;22715;52.182;21.206;2023-04-16T14:19:53;3.05;;;2.63;;
36745;SDS011;22715;52.182;21.206;2023-04-16T14:22:20;3.13;;;2.88;;
36745;SDS011;22715;52.182;21.206;2023-04-16T14:24:46;3.95;;;2.58;;
36745;SDS011;22715;52.182;21.206;2023-04-16T14:27:13;2.88;;;2.58;;
36745;SDS011;22715;52.182;21.206;2023-04-16T14:29:38;2.80;;;2.42;;
36745;SDS011;22715;52.182;21.206;2023-04-16T14:32:05;3.33;;;2.20;;
36745;SDS011;22715;52.182;21.206;2023-04-16T14:34:30;2.67;;;2.45;;
36745;SDS011;22715;52.182;21.206;2023-04-16T14:37:06;2.50;;;2.30;;
36745;SDS011;22715;52.182;21.206;2023-04-16T14:39:31;2.95;;;2.63;;
36745;SDS011;22715;52.182;21.206;2023-04-16T14:41:56;3.22;;;2.83;;
36745;SDS011;22715;52.182;21.206;2023-04-16T14:44:22;2.85;;;2.65;;
36745;SDS011;22715;52.182;21.206;2023-04-16T14:46:47;3.55;;;3.25;;
36745;SDS011;22715;52.182;21.206;2023-04-16T14:49:12;4.00;;;3.53;;
36745;SDS011;22715;52.182;21.206;2023-04-16T14:51:38;3.08;;;2.78;;
36745;SDS011;22715;52.182;21.206;2023-04-16T14:54:04;3.05;;;2.80;;
36745;SDS011;22715;52.182;21.206;2023-04-16T14:56:29;3.70;;;3.40;;
36745;SDS011;22715;52.182;21.206;2023-04-16T14:58:56;3.05;;;2.75;;
36745;SDS011;22715;52.182;21.206;2023-04-16T15:01:21;3.72;;;3.25;;
36745;SDS011;22715;52.182;21.206;2023-04-16T15:03:47;3.53;;;3.08;;
36745;SDS011;22715;52.182;21.206;2023-04-16T15:08:47;3.53;;;3.22;;
36745;SDS011;22715;52.182;21.206;2023-04-16T15:11:14;3.58;;;3.17;;
36745;SDS011;22715;52.182;21.206;2023-04-16T15:13:39;3.45;;;3.17;;
36745;SDS011;22715;52.182;21.206;2023-04-16T15:16:04;3.65;;;2.80;;
36745;SDS011;22715;52.182;21.206;2023-04-16T15:18:32;2.67;;;2.47;;
36745;SDS011;22715;52.182;21.206;2023-04-16T15:23:33;3.30;;;3.00;;
36745;SDS011;22715;52.182;21.206;2023-04-16T15:25:58;2.78;;;2.58;;
36745;SDS011;22715;52.182;21.206;2023-04-16T15:28:25;3.78;;;2.85;;
36745;SDS011;22715;52.182;21.206;2023-04-16T15:30:51;4.18;;;3.53;;
36745;SDS011;22715;52.182;21.206;2023-04-16T15:33:17;3.25;;;2.53;;
36745;SDS011;22715;52.182;21.206;2023-04-16T15:35:44;3.67;;;3.38;;
36745;SDS011;22715;52.182;21.206;2023-04-16T15:38:10;3.35;;;3.05;;
36745;SDS011;22715;52.182;21.206;2023-04-16T15:40:35;3.25;;;2.95;;
36745;SDS011;22715;52.182;21.206;2023-04-16T15:43:07;3.33;;;3.03;;
36745;SDS011;22715;52.182;21.206;2023-04-16T15:45:35;4.55;;;4.15;;
36745;SDS011;22715;52.182;21.206;2023-04-16T15:48:01;3.22;;;2.85;;
36745;SDS011;22715;52.182;21.206;2023-04-16T15:50:30;3.95;;;3.42;;
36745;SDS011;22715;52.182;21.206;2023-04-16T15:52:58;4.18;;;3.22;;
36745;SDS011;22715;52.182;21.206;2023-04-16T15:55:30;6.75;;;3.83;;
36745;SDS011;22715;52.182;21.206;2023-04-16T15:57:55;4.53;;;3.88;;
36745;SDS011;22715;52.182;21.206;2023-04-16T16:00:21;5.57;;;4.35;;
36745;SDS011;22715;52.182;21.206;2023-04-16T16:02:46;4.93;;;4.32;;
36745;SDS011;22715;52.182;21.206;2023-04-16T16:05:12;6.18;;;4.88;;
36745;SDS011;22715;52.182;21.206;2023-04-16T16:07:51;5.25;;;3.90;;
36745;SDS011;22715;52.182;21.206;2023-04-16T16:10:16;4.68;;;4.18;;
36745;SDS011;22715;52.182;21.206;2023-04-16T16:15:17;4.90;;;4.28;;
36745;SDS011;22715;52.182;21.206;2023-04-16T16:17:43;4.97;;;4.22;;
36745;SDS011;22715;52.182;21.206;2023-04-16T16:20:08;4.30;;;3.88;;
36745;SDS011;22715;52.182;21.206;2023-04-16T16:22:34;4.95;;;4.45;;
36745;SDS011;22715;52.182;21.206;2023-04-16T16:25:00;5.80;;;4.30;;
36745;SDS011;22715;52.182;21.206;2023-04-16T16:27:25;5.65;;;4.63;;
36745;SDS011;22715;52.182;21.206;2023-04-16T16:29:51;4.82;;;3.83;;
36745;SDS011;22715;52.182;21.206;2023-04-16T16:32:16;6.15;;;4.50;;
36745;SDS011;22715;52.182;21.206;2023-04-16T16:37:32;5.63;;;4.53;;
36745;SDS011;22715;52.182;21.206;2023-04-16T16:39:57;4.88;;;4.03;;
36745;SDS011;22715;52.182;21.206;2023-04-16T16:42:25;5.47;;;4.95;;
36745;SDS011;22715;52.182;21.206;2023-04-16T16:44:53;5.40;;;4.90;;
36745;SDS011;22715;52.182;21.206;2023-04-16T16:47:24;5.57;;;3.97;;
36745;SDS011;22715;52.182;21.206;2023-04-16T16:49:53;5.78;;;5.07;;
36745;SDS011;22715;52.182;21.206;2023-04-16T16:52:21;5.93;;;5.32;;
36745;SDS011;22715;52.182;21.206;2023-04-16T16:54:47;6.32;;;4.50;;
36745;SDS011;22715;52.182;21.206;2023-04-16T16:57:12;6.38;;;5.00;;
36745;SDS011;22715;52.182;21.206;2023-04-16T16:59:39;5.70;;;4.72;;
36745;SDS011;22715;52.182;21.206;2023-04-16T17:02:05;8.68;;;4.90;;
36745;SDS011;22715;52.182;21.206;2023-04-16T17:04:30;5.53;;;4.88;;
36745;SDS011;22715;52.182;21.206;2023-04-16T17:06:55;5.95;;;4.75;;
36745;SDS011;22715;52.182;21.206;2023-04-16T17:09:21;8.45;;;5.47;;
36745;SDS011;22715;52.182;21.206;2023-04-16T17:11:46;8.15;;;5.95;;
36745;SDS011;22715;52.182;21.206;2023-04-16T17:14:12;6.40;;;5.32;;
36745;SDS011;22715;52.182;21.206;2023-04-16T17:16:37;7.78;;;5.47;;
36745;SDS011;22715;52.182;21.206;2023-04-16T17:19:02;8.00;;;5.28;;
36745;SDS011;22715;52.182;21.206;2023-04-16T17:21:29;5.85;;;5.25;;
36745;SDS011;22715;52.182;21.206;2023-04-16T17:23:59;6.30;;;5.35;;
36745;SDS011;22715;52.182;21.206;2023-04-16T17:26:24;6.03;;;4.85;;
36745;SDS011;22715;52.182;21.206;2023-04-16T17:28:54;8.05;;;5.90;;
36745;SDS011;22715;52.182;21.206;2023-04-16T17:31:21;7.78;;;5.13;;
36745;SDS011;22715;52.182;21.206;2023-04-16T17:33:46;6.50;;;5.53;;
36745;SDS011;22715;52.182;21.206;2023-04-16T17:36:13;6.50;;;4.60;;
36745;SDS011;22715;52.182;21.206;2023-04-16T17:38:38;8.27;;;5.13;;
36745;SDS011;22715;52.182;21.206;2023-04-16T17:41:04;8.80;;;5.95;;
36745;SDS011;22715;52.182;21.206;2023-04-16T17:43:29;6.65;;;5.15;;
36745;SDS011;22715;52.182;21.206;2023-04-16T17:45:54;8.60;;;4.85;;
36745;SDS011;22715;52.182;21.206;2023-04-16T17:48:20;9.50;;;5.65;;
36745;SDS011;22715;52.182;21.206;2023-04-16T17:50:56;8.93;;;5.75;;
36745;SDS011;22715;52.182;21.206;2023-04-16T17:53:25;6.53;;;4.88;;
36745;SDS011;22715;52.182;21.206;2023-04-16T17:56:00;6.47;;;5.05;;
36745;SDS011;22715;52.182;21.206;2023-04-16T17:58:25;8.20;;;5.75;;
36745;SDS011;22715;52.182;21.206;2023-04-16T18:00:50;6.53;;;5.10;;
36745;SDS011;22715;52.182;21.206;2023-04-16T18:03:16;6.35;;;4.68;;
36745;SDS011;22715;52.182;21.206;2023-04-16T18:05:41;6.32;;;5.55;;
36745;SDS011;22715;52.182;21.206;2023-04-16T18:08:06;7.82;;;6.22;;
36745;SDS011;22715;52.182;21.206;2023-04-16T18:10:32;9.48;;;5.35;;
36745;SDS011;22715;52.182;21.206;2023-04-16T18:12:58;8.00;;;5.93;;
36745;SDS011;22715;52.182;21.206;2023-04-16T18:15:23;7.82;;;6.05;;
36745;SDS011;22715;52.182;21.206;2023-04-16T18:17:58;7.25;;;6.05;;
36745;SDS011;22715;52.182;21.206;2023-04-16T18:20:26;5.40;;;4.88;;
36745;SDS011;22715;52.182;21.206;2023-04-16T18:22:51;6.18;;;5.57;;
36745;SDS011;22715;52.182;21.206;2023-04-16T18:25:17;6.90;;;6.13;;
36745;SDS011;22715;52.182;21.206;2023-04-16T18:27:42;8.85;;;7.45;;
36745;SDS011;22715;52.182;21.206;2023-04-16T18:30:08;9.40;;;7.28;;
36745;SDS011;22715;52.182;21.206;2023-04-16T18:32:34;11.20;;;7.07;;
36745;SDS011;22715;52.182;21.206;2023-04-16T18:34:59;8.48;;;6.43;;
36745;SDS011;22715;52.182;21.206;2023-04-16T18:37:24;9.13;;;6.10;;
36745;SDS011;22715;52.182;21.206;2023-04-16T18:39:50;12.02;;;7.53;;
36745;SDS011;22715;52.182;21.206;2023-04-16T18:42:25;10.20;;;6.55;;
36745;SDS011;22715;52.182;21.206;2023-04-16T18:44:53;7.80;;;6.07;;
36745;SDS011;22715;52.182;21.206;2023-04-16T18:47:19;11.00;;;7.25;;
36745;SDS011;22715;52.182;21.206;2023-04-16T18:49:44;9.70;;;6.72;;
36745;SDS011;22715;52.182;21.206;2023-04-16T18:52:10;9.30;;;6.03;;
36745;SDS011;22715;52.182;21.206;2023-04-16T18:54:35;11.73;;;8.10;;
36745;SDS011;22715;52.182;21.206;2023-04-16T18:57:01;8.02;;;6.65;;
36745;SDS011;22715;52.182;21.206;2023-04-16T18:59:33;10.38;;;6.80;;
36745;SDS011;22715;52.182;21.206;2023-04-16T19:01:58;9.60;;;6.47;;
36745;SDS011;22715;52.182;21.206;2023-04-16T19:04:32;14.13;;;6.95;;
36745;SDS011;22715;52.182;21.206;2023-04-16T19:06:57;6.70;;;6.07;;
36745;SDS011;22715;52.182;21.206;2023-04-16T19:09:23;8.15;;;6.43;;
36745;SDS011;22715;52.182;21.206;2023-04-16T19:11:48;8.65;;;6.93;;
36745;SDS011;22715;52.182;21.206;2023-04-16T19:14:14;9.30;;;7.00;;
36745;SDS011;22715;52.182;21.206;2023-04-16T19:16:40;10.70;;;7.63;;
36745;SDS011;22715;52.182;21.206;2023-04-16T19:19:05;7.88;;;6.20;;
36745;SDS011;22715;52.182;21.206;2023-04-16T19:21:30;11.70;;;6.95;;
36745;SDS011;22715;52.182;21.206;2023-04-16T19:23:56;8.27;;;6.38;;
36745;SDS011;22715;52.182;21.206;2023-04-16T19:29:02;8.07;;;6.97;;
36745;SDS011;22715;52.182;21.206;2023-04-16T19:31:30;10.57;;;8.05;;
36745;SDS011;22715;52.182;21.206;2023-04-16T19:33:55;9.98;;;6.88;;
36745;SDS011;22715;52.182;21.206;2023-04-16T19:36:20;8.73;;;7.07;;
36745;SDS011;22715;52.182;21.206;2023-04-16T19:38:46;10.82;;;7.65;;
36745;SDS011;22715;52.182;21.206;2023-04-16T19:41:27;10.68;;;7.97;;
36745;SDS011;22715;52.182;21.206;2023-04-16T19:44:03;13.07;;;8.25;;
36745;SDS011;22715;52.182;21.206;2023-04-16T19:46:29;11.70;;;7.80;;
36745;SDS011;22715;52.182;21.206;2023-04-16T19:49:02;10.05;;;8.05;;
36745;SDS011;22715;52.182;21.206;2023-04-16T19:51:48;9.73;;;7.47;;
36745;SDS011;22715;52.182;21.206;2023-04-16T19:54:22;9.88;;;7.57;;
36745;SDS011;22715;52.182;21.206;2023-04-16T19:56:48;9.95;;;7.55;;
36745;SDS011;22715;52.182;21.206;2023-04-16T19:59:21;12.48;;;7.75;;
36745;SDS011;22715;52.182;21.206;2023-04-16T20:01:51;11.40;;;8.15;;
36745;SDS011;22715;52.182;21.206;2023-04-16T20:04:28;11.07;;;7.90;;
36745;SDS011;22715;52.182;21.206;2023-04-16T20:07:25;11.13;;;7.75;;
36745;SDS011;22715;52.182;21.206;2023-04-16T20:09:51;9.45;;;7.05;;
36745;SDS011;22715;52.182;21.206;2023-04-16T20:15:19;11.23;;;7.95;;
36745;SDS011;22715;52.182;21.206;2023-04-16T20:17:44;15.30;;;9.70;;
36745;SDS011;22715;52.182;21.206;2023-04-16T20:20:09;12.82;;;8.20;;
36745;SDS011;22715;52.182;21.206;2023-04-16T20:22:35;10.13;;;8.55;;
36745;SDS011;22715;52.182;21.206;2023-04-16T20:25:03;14.95;;;7.47;;
36745;SDS011;22715;52.182;21.206;2023-04-16T20:27:30;10.52;;;8.23;;
36745;SDS011;22715;52.182;21.206;2023-04-16T20:29:56;11.40;;;8.02;;
36745;SDS011;22715;52.182;21.206;2023-04-16T20:32:21;11.02;;;7.63;;
36745;SDS011;22715;52.182;21.206;2023-04-16T20:34:47;11.13;;;7.75;;